createdAt,value
2018-09-15T00:01:46.561Z,88.88
2018-09-15T00:04:14.858Z,90.47
2018-09-15T00:06:42.905Z,91.03
2018-09-15T00:09:10.989Z,89.94
2018-09-15T00:11:39.121Z,90.14
2018-09-15T00:14:07.140Z,90.36
2018-09-15T00:16:35.228Z,90.15
2018-09-15T00:19:03.256Z,91.33
2018-09-15T00:21:31.364Z,91.68
2018-09-15T00:23:59.465Z,90.84
2018-09-15T00:26:27.569Z,90.65
2018-09-15T00:28:55.575Z,90.63
2018-09-15T00:31:23.609Z,91.63
2018-09-15T00:33:51.783Z,92.14
2018-09-15T00:36:19.794Z,91.48
2018-09-15T00:38:47.910Z,90.73
2018-09-15T00:41:15.932Z,91.46
2018-09-15T00:43:44.023Z,91.45
2018-09-15T00:46:11.990Z,92.28
2018-09-15T00:48:40.386Z,92.44
2018-09-15T00:51:08.771Z,92.51
2018-09-15T00:53:37.995Z,91.80
2018-09-15T00:56:06.244Z,92.18
2018-09-15T00:58:34.531Z,92.12
2018-09-15T01:01:02.734Z,92.70
2018-09-15T01:03:30.903Z,92.64
2018-09-15T01:05:59.075Z,93.23
2018-09-15T01:08:27.248Z,93.06
2018-09-15T01:10:55.608Z,94.35
2018-09-15T01:13:23.943Z,94.31
2018-09-15T01:15:52.110Z,93.38
2018-09-15T01:18:20.324Z,93.13
2018-09-15T01:20:48.498Z,92.63
2018-09-15T01:23:16.793Z,94.18
2018-09-15T01:25:44.933Z,93.72
2018-09-15T01:28:13.111Z,94.05
2018-09-15T01:30:41.266Z,95.60
2018-09-15T01:33:09.471Z,94.98
2018-09-15T01:35:37.667Z,95.13
2018-09-15T01:38:05.881Z,94.15
2018-09-15T01:40:34.060Z,93.25
2018-09-15T01:43:03.372Z,94.37
2018-09-15T01:45:31.590Z,95.14
2018-09-15T01:47:59.798Z,95.64
2018-09-15T01:50:27.956Z,96.01
2018-09-15T01:52:56.130Z,95.19
2018-09-15T01:55:24.290Z,96.15
2018-09-15T01:57:52.415Z,95.48
2018-09-15T02:00:20.637Z,96.08
2018-09-15T02:02:48.894Z,95.80
2018-09-15T02:05:16.993Z,96.39
2018-09-15T02:07:45.099Z,96.53
2018-09-15T02:10:13.264Z,96.54
2018-09-15T02:12:41.493Z,96.26
2018-09-15T02:15:09.613Z,96.00
2018-09-15T02:17:37.748Z,97.23
2018-09-15T02:20:05.820Z,95.19
2018-09-15T02:22:34.007Z,96.09
2018-09-15T02:25:02.133Z,95.15
2018-09-15T02:27:30.632Z,95.14
2018-09-15T02:29:58.661Z,96.12
2018-09-15T02:32:26.737Z,96.06
2018-09-15T02:34:54.892Z,96.30
2018-09-15T02:37:22.895Z,95.69
2018-09-15T02:39:50.917Z,96.74
2018-09-15T02:42:19.063Z,96.29
2018-09-15T02:44:47.103Z,96.61
2018-09-15T02:47:15.074Z,96.36
2018-09-15T02:49:43.078Z,96.51
2018-09-15T02:52:11.108Z,96.94
2018-09-15T02:54:39.123Z,96.68
2018-09-15T02:57:07.237Z,97.19
2018-09-15T02:59:35.272Z,97.77
2018-09-15T03:02:03.365Z,97.15
2018-09-15T03:04:31.357Z,97.35
2018-09-15T03:06:59.355Z,97.24
2018-09-15T03:09:27.390Z,96.99
2018-09-15T03:11:55.463Z,97.38
2018-09-15T03:14:23.443Z,97.89
2018-09-15T03:16:51.464Z,98.71
2018-09-15T03:19:19.603Z,97.49
2018-09-15T03:21:47.779Z,97.77
2018-09-15T03:24:15.864Z,99.06
2018-09-15T03:26:43.896Z,98.76
2018-09-15T03:29:12.040Z,98.64
2018-09-15T03:31:40.311Z,98.60
2018-09-15T03:34:08.449Z,97.45
2018-09-15T03:36:37.069Z,98.22
2018-09-15T03:39:08.290Z,98.28
2018-09-15T03:41:36.781Z,98.14
2018-09-15T03:44:05.237Z,98.75
2018-09-15T03:46:33.420Z,98.31
2018-09-15T03:49:01.863Z,99.06
2018-09-15T03:51:29.955Z,98.47
2018-09-15T03:53:58.066Z,98.69
2018-09-15T03:56:26.186Z,98.72
2018-09-15T03:58:54.266Z,98.95
2018-09-15T04:01:22.292Z,98.19
2018-09-15T04:03:50.306Z,98.73
2018-09-15T04:06:18.441Z,98.29
2018-09-15T04:08:46.694Z,98.87
2018-09-15T04:11:15.044Z,99.60
2018-09-15T04:13:43.392Z,98.85
2018-09-15T04:16:11.486Z,99.23
2018-09-15T04:18:39.551Z,99.24
2018-09-15T04:21:07.579Z,99.06
2018-09-15T04:23:35.750Z,99.43
2018-09-15T04:26:03.822Z,100.00
2018-09-15T04:28:32.091Z,99.95
2018-09-15T04:31:00.159Z,100.00
2018-09-15T04:33:28.306Z,100.00
2018-09-15T04:35:56.719Z,99.67
2018-09-15T04:38:24.852Z,100.00
2018-09-15T04:40:53.056Z,98.74
2018-09-15T04:43:21.267Z,95.04
2018-09-15T04:45:49.277Z,89.97
2018-09-15T04:48:17.336Z,85.78
2018-09-15T04:50:45.492Z,83.63
2018-09-15T04:53:13.695Z,81.54
2018-09-15T04:55:41.751Z,82.49
2018-09-15T04:58:09.843Z,83.38
2018-09-15T05:00:38.452Z,82.45
2018-09-15T05:03:06.996Z,80.42
2018-09-15T05:05:35.648Z,78.54
2018-09-15T05:08:04.239Z,78.00
2018-09-15T05:10:32.630Z,77.64
2018-09-15T05:13:01.216Z,77.74
2018-09-15T05:15:29.641Z,76.65
2018-09-15T05:17:58.059Z,76.66
2018-09-15T05:20:26.554Z,76.70
2018-09-15T05:22:55.104Z,77.14
2018-09-15T05:25:23.619Z,76.63
2018-09-15T05:27:52.039Z,75.67
2018-09-15T05:30:20.945Z,76.44
2018-09-15T05:32:50.568Z,76.03
2018-09-15T05:35:19.203Z,74.81
2018-09-15T05:37:48.073Z,75.66
2018-09-15T05:40:16.639Z,77.42
2018-09-15T05:42:45.855Z,75.28
2018-09-15T05:45:15.062Z,74.70
2018-09-15T05:47:44.121Z,75.90
2018-09-15T05:50:12.857Z,76.06
2018-09-15T05:52:41.415Z,76.01
2018-09-15T05:55:09.825Z,76.84
2018-09-15T05:57:38.532Z,77.01
2018-09-15T06:00:06.978Z,77.35
2018-09-15T06:02:35.451Z,77.35
2018-09-15T06:05:03.939Z,76.01
2018-09-15T06:07:32.379Z,76.48
2018-09-15T06:10:00.939Z,76.90
2018-09-15T06:12:29.369Z,76.69
2018-09-15T06:14:57.802Z,75.77
2018-09-15T06:17:26.182Z,77.90
2018-09-15T06:19:54.531Z,76.96
2018-09-15T06:22:23.092Z,75.38
2018-09-15T06:24:51.610Z,76.30
2018-09-15T06:27:20.302Z,75.74
2018-09-15T06:29:48.965Z,76.84
2018-09-15T06:32:17.503Z,75.95
2018-09-15T06:34:46.095Z,75.95
2018-09-15T06:37:14.505Z,74.45
2018-09-15T06:39:42.958Z,74.22
2018-09-15T06:42:11.363Z,75.59
2018-09-15T06:44:39.895Z,73.95
2018-09-15T06:47:08.311Z,74.31
2018-09-15T06:49:36.749Z,73.05
2018-09-15T06:52:05.230Z,73.00
2018-09-15T06:54:33.697Z,72.69
2018-09-15T06:57:02.341Z,72.32
2018-09-15T06:59:31.002Z,69.78
2018-09-15T07:01:59.457Z,69.86
2018-09-15T07:04:30.503Z,69.51
2018-09-15T07:07:00.216Z,69.77
2018-09-15T07:09:28.770Z,69.63
2018-09-15T07:11:57.122Z,67.69
2018-09-15T07:14:25.692Z,69.98
2018-09-15T07:16:54.046Z,67.34
2018-09-15T07:19:22.651Z,65.42
2018-09-15T07:21:51.472Z,65.84
2018-09-15T07:24:19.884Z,66.25
2018-09-15T07:26:48.190Z,63.79
2018-09-15T07:29:16.613Z,64.57
2018-09-15T07:31:45.266Z,62.78
2018-09-15T07:34:14.819Z,61.62
2018-09-15T07:36:43.185Z,62.55
2018-09-15T07:39:12.028Z,62.59
2018-09-15T07:41:40.884Z,61.25
2018-09-15T07:44:09.350Z,60.24
2018-09-15T07:46:37.662Z,61.92
2018-09-15T07:49:06.115Z,58.65
2018-09-15T07:51:34.508Z,57.02
2018-09-15T07:54:03.056Z,55.40
2018-09-15T07:56:31.719Z,56.31
2018-09-15T07:59:00.126Z,55.94
2018-09-15T08:01:28.404Z,56.47
2018-09-15T08:03:58.118Z,53.95
2018-09-15T08:06:26.426Z,55.14
2018-09-15T08:08:54.752Z,56.61
2018-09-15T08:11:22.932Z,56.58
2018-09-15T08:13:51.254Z,55.26
2018-09-15T08:16:20.548Z,55.12
2018-09-15T08:18:48.796Z,56.89
2018-09-15T08:21:17.054Z,52.59
2018-09-15T08:23:45.403Z,51.98
2018-09-15T08:26:14.023Z,51.35
2018-09-15T08:28:42.475Z,52.24
2018-09-15T08:31:10.969Z,49.11
2018-09-15T08:33:39.855Z,50.72
2018-09-15T08:36:08.352Z,50.93
2018-09-15T08:38:36.869Z,51.29
2018-09-15T08:41:05.346Z,50.40
2018-09-15T08:43:33.894Z,51.05
2018-09-15T08:46:03.045Z,48.78
2018-09-15T08:48:31.245Z,48.49
2018-09-15T08:50:59.575Z,43.97
2018-09-15T08:53:27.987Z,42.65
2018-09-15T08:55:56.407Z,44.70
2018-09-15T08:58:24.710Z,46.07
2018-09-15T09:00:53.252Z,43.83
2018-09-15T09:03:22.596Z,42.64
2018-09-15T09:05:51.147Z,42.39
2018-09-15T09:08:19.699Z,42.86
2018-09-15T09:10:48.121Z,39.95
2018-09-15T09:13:16.640Z,42.33
2018-09-15T09:15:45.152Z,42.56
2018-09-15T09:18:13.668Z,40.22
2018-09-15T09:20:41.972Z,41.42
2018-09-15T09:26:07.507Z,41.92
2018-09-15T09:28:35.842Z,42.72
2018-09-15T09:31:04.250Z,41.26
2018-09-15T09:33:32.777Z,40.88
2018-09-15T09:36:01.056Z,41.58
2018-09-15T09:38:29.293Z,39.30
2018-09-15T09:40:57.711Z,40.55
2018-09-15T09:43:27.031Z,41.62
2018-09-15T09:45:55.298Z,41.22
2018-09-15T09:48:24.263Z,40.87
2018-09-15T09:50:53.126Z,40.36
2018-09-15T09:53:24.785Z,39.38
2018-09-15T09:55:53.291Z,40.51
2018-09-15T09:58:21.887Z,38.75
2018-09-15T10:00:56.056Z,39.97
2018-09-15T10:03:24.566Z,41.61
2018-09-15T10:05:54.935Z,40.99
2018-09-15T10:08:24.311Z,40.97
2018-09-15T10:10:54.638Z,40.67
2018-09-15T10:13:23.325Z,40.54
2018-09-15T10:15:51.864Z,39.19
2018-09-15T10:18:20.362Z,38.71
2018-09-15T10:20:49.043Z,37.46
2018-09-15T10:23:17.537Z,37.08
2018-09-15T10:25:46.072Z,36.25
2018-09-15T10:28:14.809Z,37.55
2018-09-15T10:30:43.641Z,34.23
2018-09-15T10:33:12.350Z,36.02
2018-09-15T10:35:40.796Z,36.09
2018-09-15T10:38:09.832Z,35.46
2018-09-15T10:40:38.333Z,36.34
2018-09-15T10:43:08.813Z,36.89
2018-09-15T10:45:37.734Z,37.66
2018-09-15T10:48:06.463Z,36.38
2018-09-15T10:50:34.934Z,36.67
2018-09-15T10:53:03.679Z,35.83
2018-09-15T10:55:32.481Z,37.14
2018-09-15T10:58:01.380Z,36.35
2018-09-15T11:00:29.894Z,34.29
2018-09-15T11:02:59.354Z,34.90
2018-09-15T11:05:28.658Z,31.73
2018-09-15T11:07:57.669Z,32.68
2018-09-15T11:10:26.464Z,33.87
2018-09-15T11:12:55.497Z,35.09
2018-09-15T11:15:24.469Z,34.19
2018-09-15T11:17:53.875Z,34.57
2018-09-15T11:20:23.055Z,34.81
2018-09-15T11:22:51.819Z,36.36
2018-09-15T11:25:20.386Z,35.83
2018-09-15T11:27:49.280Z,38.30
2018-09-15T11:30:19.560Z,37.36
2018-09-15T11:32:48.585Z,37.43
2018-09-15T11:35:17.922Z,38.82
2018-09-15T11:37:46.864Z,36.71
2018-09-15T11:40:15.843Z,38.90
2018-09-15T11:42:45.347Z,37.12
2018-09-15T11:45:14.831Z,36.07
2018-09-15T11:47:47.154Z,35.19
2018-09-15T11:50:17.139Z,34.76
2018-09-15T11:52:48.455Z,34.13
2018-09-15T11:55:18.743Z,34.33
2018-09-15T11:57:47.500Z,34.74
2018-09-15T12:00:24.169Z,34.15
2018-09-15T12:02:54.154Z,35.57
2018-09-15T12:05:23.662Z,36.88
2018-09-15T12:07:53.026Z,34.53
2018-09-15T12:10:21.877Z,33.54
2018-09-15T12:12:50.690Z,35.27
2018-09-15T12:15:21.153Z,32.81
2018-09-15T12:17:51.612Z,33.49
2018-09-15T12:20:22.727Z,33.50
2018-09-15T12:22:52.380Z,34.38
2018-09-15T12:25:22.242Z,32.32
2018-09-15T12:27:51.813Z,32.03
2018-09-15T12:30:21.638Z,32.38
2018-09-15T12:32:51.578Z,32.77
2018-09-15T12:35:20.614Z,31.83
2018-09-15T12:37:49.182Z,32.35
2018-09-15T12:40:18.680Z,33.23
2018-09-15T12:42:47.532Z,33.06
2018-09-15T12:45:18.821Z,32.14
2018-09-15T12:47:49.862Z,32.34
2018-09-15T12:50:19.602Z,33.80
2018-09-15T13:14:31.591Z,33.49
2018-09-15T13:17:00.908Z,34.29
2018-09-15T13:19:30.054Z,33.93
2018-09-15T13:21:59.861Z,33.56
2018-09-15T13:24:30.235Z,35.21
2018-09-15T13:27:00.727Z,34.33
2018-09-15T13:29:36.660Z,35.94
2018-09-15T13:32:07.189Z,35.19
2018-09-15T13:34:44.262Z,35.37
2018-09-15T13:37:14.056Z,36.64
2018-09-15T13:39:42.606Z,34.13
2018-09-15T13:42:11.629Z,35.97
2018-09-15T13:44:41.734Z,36.13
2018-09-15T13:47:13.183Z,37.15
2018-09-15T13:49:42.205Z,37.15
2018-09-15T13:52:11.167Z,39.09
2018-09-15T13:54:39.957Z,39.99
2018-09-15T13:57:08.759Z,40.07
2018-09-15T13:59:45.843Z,40.30
2018-09-15T14:02:20.987Z,42.47
2018-09-15T14:04:53.517Z,42.95
2018-09-15T14:07:26.213Z,43.18
2018-09-15T14:09:59.870Z,42.55
2018-09-15T14:12:32.773Z,40.14
2018-09-15T14:15:05.408Z,38.58
2018-09-15T14:17:36.387Z,41.11
2018-09-15T14:20:07.359Z,42.98
2018-09-15T14:22:36.517Z,41.97
2018-09-15T14:25:05.248Z,44.08
2018-09-15T14:27:34.370Z,44.19
2018-09-15T14:30:03.126Z,44.27
2018-09-15T14:32:32.590Z,43.50
2018-09-15T14:35:01.671Z,45.26
2018-09-15T14:37:30.290Z,42.00
2018-09-15T14:40:00.078Z,44.31
2018-09-15T14:42:32.990Z,43.32
2018-09-15T14:45:05.372Z,45.99
2018-09-15T14:47:35.624Z,44.09
2018-09-15T14:50:11.061Z,42.17
2018-09-15T14:52:41.797Z,41.83
2018-09-15T14:55:14.950Z,42.69
2018-09-15T14:57:45.387Z,40.99
2018-09-15T15:00:16.530Z,40.85
2018-09-15T15:02:50.947Z,42.98
2018-09-15T15:05:20.697Z,44.55
2018-09-15T15:07:51.163Z,40.17
2018-09-15T15:10:21.042Z,41.18
2018-09-15T15:12:51.342Z,41.54
2018-09-15T15:15:20.592Z,42.43
2018-09-15T15:17:50.740Z,42.23
2018-09-15T15:20:21.083Z,43.81
2018-09-15T15:22:50.364Z,42.10
2018-09-15T15:25:21.733Z,42.48
2018-09-15T15:27:52.615Z,43.49
2018-09-15T15:30:21.717Z,43.84
2018-09-15T15:32:50.567Z,44.71
2018-09-15T15:35:22.423Z,45.01
2018-09-15T15:37:51.509Z,44.58
2018-09-15T15:40:22.132Z,44.15
2018-09-15T15:42:51.616Z,45.44
2018-09-15T15:45:20.691Z,45.22
2018-09-15T15:47:49.620Z,46.51
2018-09-15T15:50:19.368Z,46.15
2018-09-15T15:52:48.520Z,47.44
2018-09-15T15:55:17.788Z,45.98
2018-09-15T15:57:46.609Z,48.15
2018-09-15T16:00:16.251Z,48.46
2018-09-15T16:02:45.292Z,49.18
2018-09-15T16:05:14.756Z,47.99
2018-09-15T16:07:43.590Z,49.46
2018-09-15T16:10:12.562Z,49.99
2018-09-15T16:12:41.483Z,49.98
2018-09-15T16:15:09.864Z,49.15
2018-09-15T16:17:38.170Z,50.29
2018-09-15T16:20:06.706Z,51.16
2018-09-15T16:22:35.329Z,50.73
2018-09-15T16:25:04.238Z,51.34
2018-09-15T16:27:32.393Z,52.15
2018-09-15T16:30:00.936Z,52.20
2018-09-15T16:32:29.199Z,51.90
2018-09-15T16:34:58.574Z,53.21
2018-09-15T16:37:26.700Z,52.79
2018-09-15T16:39:54.948Z,53.65
2018-09-15T16:42:23.238Z,53.44
2018-09-15T16:44:51.384Z,53.02
2018-09-15T16:47:19.788Z,53.58
2018-09-15T16:49:48.034Z,54.80
2018-09-15T16:52:16.822Z,54.88
2018-09-15T16:54:46.368Z,56.60
2018-09-15T16:57:15.048Z,57.68
2018-09-15T16:59:43.639Z,57.58
2018-09-15T17:02:12.334Z,57.56
2018-09-15T17:04:41.184Z,58.35
2018-09-15T17:07:10.044Z,58.77
2018-09-15T17:09:39.222Z,58.83
2018-09-15T17:12:07.669Z,58.89
2018-09-15T17:14:36.432Z,59.36
2018-09-15T17:17:06.539Z,60.07
2018-09-15T17:19:38.276Z,60.16
2018-09-15T17:22:09.867Z,60.85
2018-09-15T17:24:41.899Z,60.97
2018-09-15T17:27:12.235Z,61.62
2018-09-15T17:29:44.200Z,62.88
2018-09-15T17:32:14.526Z,62.34
2018-09-15T17:34:44.782Z,63.61
2018-09-15T17:37:16.838Z,64.33
2018-09-15T17:39:47.649Z,64.70
2018-09-15T17:47:53.395Z,65.71
2018-09-15T17:50:21.966Z,66.14
2018-09-15T17:52:50.808Z,66.94
2018-09-15T17:55:20.927Z,66.29
2018-09-15T18:09:30.487Z,67.75
2018-09-15T18:12:00.026Z,68.35
2018-09-15T18:14:29.280Z,69.09
2018-09-15T18:16:58.461Z,68.94
2018-09-15T18:19:27.664Z,69.64
2018-09-15T18:21:57.537Z,70.01
2018-09-15T18:24:27.364Z,71.38
2018-09-15T18:26:56.727Z,70.42
2018-09-15T18:29:26.434Z,71.12
2018-09-15T18:31:55.413Z,70.87
2018-09-15T18:34:30.886Z,71.69
2018-09-15T18:37:00.870Z,71.18
2018-09-15T18:39:30.611Z,70.83
2018-09-15T18:42:02.391Z,71.02
2018-09-15T18:44:42.325Z,70.85
2018-09-15T18:47:13.062Z,70.79
2018-09-15T18:49:43.049Z,71.08
2018-09-15T18:52:12.836Z,72.65
2018-09-15T18:54:49.520Z,72.48
2018-09-15T18:57:19.189Z,72.71
2018-09-15T18:59:49.333Z,72.60
2018-09-15T19:02:18.562Z,73.51
2018-09-15T19:04:48.320Z,73.90
2018-09-15T19:07:17.169Z,72.84
2018-09-15T19:09:45.642Z,73.24
2018-09-15T19:12:14.967Z,73.54
2018-09-15T19:14:47.524Z,74.53
2018-09-15T19:17:16.238Z,74.43
2018-09-15T19:19:44.957Z,74.49
2018-09-15T19:22:15.019Z,74.94
2018-09-15T19:24:45.773Z,74.81
2018-09-15T19:27:14.352Z,74.94
2018-09-15T19:29:43.106Z,74.70
2018-09-15T19:32:12.371Z,75.69
2018-09-15T19:34:41.052Z,75.79
2018-09-15T19:37:10.903Z,76.18
2018-09-15T19:39:41.022Z,74.53
2018-09-15T19:42:10.629Z,74.11
2018-09-15T19:44:42.007Z,73.44
2018-09-15T19:47:11.716Z,73.07
2018-09-15T19:49:40.526Z,73.40
2018-09-15T19:52:09.419Z,74.43
2018-09-15T19:54:38.721Z,73.33
2018-09-15T19:57:07.767Z,73.02
2018-09-15T19:59:37.033Z,72.51
2018-09-15T20:02:06.245Z,73.14
2018-09-15T20:04:40.955Z,73.42
2018-09-15T20:07:10.237Z,73.27
2018-09-15T20:09:39.163Z,73.94
2018-09-15T20:12:08.450Z,74.00
2018-09-15T20:14:37.303Z,74.57
2018-09-15T20:17:04.686Z,75.01
2018-09-15T20:19:31.925Z,75.64
2018-09-15T20:21:59.104Z,75.80
2018-09-15T20:24:27.976Z,75.11
2018-09-15T20:26:58.021Z,76.18
2018-09-15T20:29:27.035Z,75.52
2018-09-15T20:31:56.893Z,75.90
2018-09-15T20:34:27.914Z,76.44
2018-09-15T20:36:57.639Z,76.39
2018-09-15T20:39:26.496Z,76.69
2018-09-15T20:41:55.395Z,76.56
2018-09-15T20:44:29.763Z,77.29
2018-09-15T20:46:58.395Z,76.53
2018-09-15T20:49:27.759Z,77.17
2018-09-15T20:51:57.574Z,77.23
2018-09-15T20:54:32.217Z,77.36
2018-09-15T20:57:01.186Z,77.57
2018-09-15T20:59:29.930Z,77.33
2018-09-15T21:01:58.911Z,77.73
2018-09-15T21:04:30.597Z,78.94
2018-09-15T21:06:59.951Z,78.72
2018-09-15T21:09:29.348Z,79.31
2018-09-15T21:11:58.483Z,79.44
2018-09-15T21:14:47.120Z,79.33
2018-09-15T21:17:16.446Z,80.19
2018-09-15T21:19:45.215Z,80.12
2018-09-15T21:22:14.268Z,80.49
2018-09-15T21:24:43.060Z,80.42
2018-09-15T21:27:11.643Z,79.85
2018-09-15T21:29:40.358Z,80.25
2018-09-15T21:32:09.064Z,80.43
2018-09-15T21:34:38.841Z,81.06
2018-09-15T21:37:08.087Z,80.26
2018-09-15T21:39:36.718Z,81.01
2018-09-15T21:42:05.388Z,80.88
2018-09-15T21:44:40.232Z,80.95
2018-09-15T21:47:08.935Z,81.01
2018-09-15T21:49:38.295Z,82.15
2018-09-15T21:52:07.233Z,82.48
2018-09-15T21:54:43.330Z,82.46
2018-09-15T21:57:12.433Z,82.52
2018-09-15T21:59:41.519Z,83.18
2018-09-15T22:02:10.796Z,82.76
2018-09-15T22:04:42.061Z,83.41
2018-09-15T22:07:10.687Z,83.98
2018-09-15T22:09:39.453Z,83.72
2018-09-15T22:12:08.148Z,83.92
2018-09-15T22:14:41.176Z,83.52
2018-09-15T22:17:09.870Z,84.26
2018-09-15T22:19:38.554Z,84.20
2018-09-15T22:22:07.433Z,84.21
2018-09-15T22:24:39.507Z,84.16
2018-09-15T22:27:08.248Z,84.76
2018-09-15T22:29:36.842Z,84.75
2018-09-15T22:32:05.516Z,84.40
2018-09-15T22:34:36.302Z,84.80
2018-09-15T22:37:05.164Z,84.87
2018-09-15T22:39:34.019Z,84.79
2018-09-15T22:42:02.617Z,85.52
2018-09-15T22:44:32.413Z,84.92
2018-09-15T22:47:00.912Z,85.95
2018-09-15T22:49:29.876Z,84.91
2018-09-15T22:51:58.003Z,86.46
2018-09-15T22:54:38.211Z,86.36
2018-09-15T22:57:06.545Z,85.37
2018-09-15T22:59:35.041Z,85.63
2018-09-15T23:02:03.837Z,85.98
2018-09-15T23:04:34.394Z,86.18
2018-09-15T23:07:03.041Z,86.20
2018-09-15T23:09:31.685Z,86.39
2018-09-15T23:11:59.904Z,86.18
2018-09-15T23:14:28.300Z,86.65
2018-09-15T23:16:56.742Z,87.02
2018-09-15T23:19:25.664Z,88.13
2018-09-15T23:21:54.706Z,88.38
2018-09-15T23:24:28.545Z,88.59
2018-09-15T23:26:56.908Z,88.43
2018-09-15T23:29:25.613Z,88.42
2018-09-15T23:31:54.083Z,88.83
2018-09-15T23:34:22.508Z,88.70
2018-09-15T23:36:50.891Z,88.83
2018-09-15T23:39:19.295Z,89.21
2018-09-15T23:41:51.709Z,89.96
2018-09-15T23:44:20.398Z,89.55
2018-09-15T23:46:49.173Z,90.57
2018-09-15T23:49:17.619Z,90.26
2018-09-15T23:51:46.281Z,90.26
2018-09-15T23:54:16.710Z,90.46
2018-09-15T23:56:45.222Z,89.57
2018-09-15T23:59:13.538Z,89.57
